sensor_id;sensor_type;location;lat;lon;timestamp;pressure;altitude;pressure_sealevel;temperature;humidity
64933;BME280;51446;53.850;10.662;2023-03-13T00:01:14;100132.19;;;6.35;100.00
64933;BME280;51446;53.850;10.662;2023-03-13T00:03:39;100128.63;;;6.30;100.00
64933;BME280;51446;53.850;10.662;2023-03-13T00:06:05;100140.09;;;6.39;100.00
64933;BME280;51446;53.850;10.662;2023-03-13T00:08:30;100136.72;;;6.43;100.00
64933;BME280;51446;53.850;10.662;2023-03-13T00:10:56;100134.88;;;6.38;100.00
64933;BME280;51446;53.850;10.662;2023-03-13T00:13:21;100135.69;;;6.35;100.00
64933;BME280;51446;53.850;10.662;2023-03-13T00:15:46;100134.19;;;6.47;100.00
64933;BME280;51446;53.850;10.662;2023-03-13T00:18:12;100127.81;;;6.34;100.00
64933;BME280;51446;53.850;10.662;2023-03-13T00:20:37;100118.28;;;6.33;100.00
64933;BME280;51446;53.850;10.662;2023-03-13T00:23:03;100116.50;;;6.32;100.00
64933;BME280;51446;53.850;10.662;2023-03-13T00:25:28;100108.72;;;6.33;100.00
64933;BME280;51446;53.850;10.662;2023-03-13T00:27:53;100110.66;;;6.42;100.00
64933;BME280;51446;53.850;10.662;2023-03-13T00:30:18;100109.00;;;6.46;100.00
64933;BME280;51446;53.850;10.662;2023-03-13T00:32:44;100104.69;;;6.48;100.00
64933;BME280;51446;53.850;10.662;2023-03-13T00:35:11;100094.38;;;6.52;100.00
64933;BME280;51446;53.850;10.662;2023-03-13T00:37:37;100088.44;;;6.59;100.00
64933;BME280;51446;53.850;10.662;2023-03-13T00:40:04;100084.72;;;6.48;100.00
64933;BME280;51446;53.850;10.662;2023-03-13T00:42:29;100083.94;;;6.51;100.00
64933;BME280;51446;53.850;10.662;2023-03-13T00:44:55;100080.78;;;6.66;100.00
64933;BME280;51446;53.850;10.662;2023-03-13T00:47:20;100073.72;;;6.60;100.00
64933;BME280;51446;53.850;10.662;2023-03-13T00:49:45;100069.44;;;6.64;100.00
64933;BME280;51446;53.850;10.662;2023-03-13T00:52:10;100064.25;;;6.65;100.00
64933;BME280;51446;53.850;10.662;2023-03-13T00:54:35;100066.88;;;6.67;100.00
64933;BME280;51446;53.850;10.662;2023-03-13T00:57:01;100056.47;;;6.68;100.00
64933;BME280;51446;53.850;10.662;2023-03-13T00:59:26;100056.22;;;6.54;100.00
64933;BME280;51446;53.850;10.662;2023-03-13T01:01:51;100046.69;;;6.55;100.00
64933;BME280;51446;53.850;10.662;2023-03-13T01:04:17;100059.06;;;6.67;100.00
64933;BME280;51446;53.850;10.662;2023-03-13T01:06:42;100060.53;;;6.54;100.00
64933;BME280;51446;53.850;10.662;2023-03-13T01:09:10;100051.66;;;6.42;100.00
64933;BME280;51446;53.850;10.662;2023-03-13T01:11:38;100046.53;;;6.47;100.00
64933;BME280;51446;53.850;10.662;2023-03-13T01:14:08;100049.28;;;6.55;100.00
64933;BME280;51446;53.850;10.662;2023-03-13T01:16:35;100037.31;;;6.65;100.00
64933;BME280;51446;53.850;10.662;2023-03-13T01:19:03;100028.53;;;6.59;100.00
64933;BME280;51446;53.850;10.662;2023-03-13T01:21:29;100028.56;;;6.61;100.00
64933;BME280;51446;53.850;10.662;2023-03-13T01:23:54;100025.78;;;6.52;100.00
64933;BME280;51446;53.850;10.662;2023-03-13T01:26:21;100028.66;;;6.66;100.00
64933;BME280;51446;53.850;10.662;2023-03-13T01:28:46;100016.47;;;6.63;100.00
64933;BME280;51446;53.850;10.662;2023-03-13T01:31:17;100023.44;;;6.64;100.00
64933;BME280;51446;53.850;10.662;2023-03-13T01:33:44;100020.81;;;6.63;100.00
64933;BME280;51446;53.850;10.662;2023-03-13T01:36:10;100013.88;;;6.65;100.00
64933;BME280;51446;53.850;10.662;2023-03-13T01:38:37;100000.06;;;6.69;100.00
64933;BME280;51446;53.850;10.662;2023-03-13T01:41:03;99998.88;;;6.51;100.00
64933;BME280;51446;53.850;10.662;2023-03-13T01:43:30;99994.56;;;6.55;100.00
64933;BME280;51446;53.850;10.662;2023-03-13T01:48:38;99990.19;;;6.52;100.00
64933;BME280;51446;53.850;10.662;2023-03-13T01:51:33;99980.81;;;6.62;100.00
64933;BME280;51446;53.850;10.662;2023-03-13T01:56:42;99969.63;;;6.66;100.00
64933;BME280;51446;53.850;10.662;2023-03-13T01:59:12;99966.16;;;6.67;100.00
64933;BME280;51446;53.850;10.662;2023-03-13T02:01:40;99966.84;;;6.57;100.00
64933;BME280;51446;53.850;10.662;2023-03-13T02:04:06;99972.97;;;6.59;100.00
64933;BME280;51446;53.850;10.662;2023-03-13T02:06:33;99959.81;;;6.53;100.00
64933;BME280;51446;53.850;10.662;2023-03-13T02:09:05;99957.41;;;6.64;100.00
64933;BME280;51446;53.850;10.662;2023-03-13T02:11:43;99940.09;;;6.66;100.00
64933;BME280;51446;53.850;10.662;2023-03-13T02:14:09;99936.56;;;6.64;100.00
64933;BME280;51446;53.850;10.662;2023-03-13T02:16:35;99934.91;;;6.67;100.00
64933;BME280;51446;53.850;10.662;2023-03-13T02:19:05;99934.78;;;6.61;100.00
64933;BME280;51446;53.850;10.662;2023-03-13T02:21:49;99921.81;;;6.63;100.00
64933;BME280;51446;53.850;10.662;2023-03-13T02:24:32;99913.06;;;6.60;100.00
64933;BME280;51446;53.850;10.662;2023-03-13T02:27:00;99913.75;;;6.50;100.00
64933;BME280;51446;53.850;10.662;2023-03-13T02:29:26;99901.56;;;6.49;100.00
64933;BME280;51446;53.850;10.662;2023-03-13T02:31:52;99903.47;;;6.59;100.00
64933;BME280;51446;53.850;10.662;2023-03-13T02:34:20;99899.13;;;6.57;100.00
64933;BME280;51446;53.850;10.662;2023-03-13T02:36:46;99883.31;;;6.48;100.00
64933;BME280;51446;53.850;10.662;2023-03-13T02:39:15;99871.25;;;6.51;100.00
64933;BME280;51446;53.850;10.662;2023-03-13T02:41:41;99872.22;;;6.59;100.00
64933;BME280;51446;53.850;10.662;2023-03-13T02:44:07;99872.16;;;6.55;100.00
64933;BME280;51446;53.850;10.662;2023-03-13T02:46:46;99864.38;;;6.58;100.00
64933;BME280;51446;53.850;10.662;2023-03-13T02:49:24;99859.06;;;6.50;100.00
64933;BME280;51446;53.850;10.662;2023-03-13T02:51:52;99861.75;;;6.56;100.00
64933;BME280;51446;53.850;10.662;2023-03-13T02:54:24;99853.81;;;6.47;100.00
64933;BME280;51446;53.850;10.662;2023-03-13T02:56:55;99845.00;;;6.42;100.00
64933;BME280;51446;53.850;10.662;2023-03-13T02:59:22;99851.03;;;6.39;100.00
64933;BME280;51446;53.850;10.662;2023-03-13T03:01:47;99845.91;;;6.42;100.00
64933;BME280;51446;53.850;10.662;2023-03-13T03:04:17;99837.19;;;6.40;100.00
64933;BME280;51446;53.850;10.662;2023-03-13T03:06:42;99842.28;;;6.34;100.00
64933;BME280;51446;53.850;10.662;2023-03-13T03:09:08;99840.47;;;6.30;100.00
64933;BME280;51446;53.850;10.662;2023-03-13T03:11:33;99831.91;;;6.36;100.00
64933;BME280;51446;53.850;10.662;2023-03-13T03:13:58;99834.56;;;6.40;100.00
64933;BME280;51446;53.850;10.662;2023-03-13T03:16:23;99824.84;;;6.30;100.00
64933;BME280;51446;53.850;10.662;2023-03-13T03:18:49;99819.69;;;6.33;100.00
64933;BME280;51446;53.850;10.662;2023-03-13T03:21:14;99812.72;;;6.32;100.00
64933;BME280;51446;53.850;10.662;2023-03-13T03:23:39;99816.25;;;6.34;100.00
64933;BME280;51446;53.850;10.662;2023-03-13T03:26:05;99809.19;;;6.27;100.00
64933;BME280;51446;53.850;10.662;2023-03-13T03:28:31;99802.44;;;6.38;100.00
64933;BME280;51446;53.850;10.662;2023-03-13T03:30:56;99796.22;;;6.32;100.00
64933;BME280;51446;53.850;10.662;2023-03-13T03:33:22;99785.78;;;6.29;100.00
64933;BME280;51446;53.850;10.662;2023-03-13T03:35:48;99798.09;;;6.39;100.00
64933;BME280;51446;53.850;10.662;2023-03-13T03:38:14;99788.41;;;6.32;100.00
64933;BME280;51446;53.850;10.662;2023-03-13T03:40:39;99792.00;;;6.37;100.00
64933;BME280;51446;53.850;10.662;2023-03-13T03:43:04;99779.78;;;6.34;100.00
64933;BME280;51446;53.850;10.662;2023-03-13T03:45:30;99773.63;;;6.31;100.00
64933;BME280;51446;53.850;10.662;2023-03-13T03:47:55;99765.94;;;6.35;100.00
64933;BME280;51446;53.850;10.662;2023-03-13T03:50:24;99763.19;;;6.29;100.00
64933;BME280;51446;53.850;10.662;2023-03-13T03:52:49;99756.38;;;6.36;100.00
64933;BME280;51446;53.850;10.662;2023-03-13T03:55:15;99746.84;;;6.38;100.00
64933;BME280;51446;53.850;10.662;2023-03-13T03:57:40;99751.09;;;6.31;100.00
64933;BME280;51446;53.850;10.662;2023-03-13T04:00:06;99738.09;;;6.33;100.00
64933;BME280;51446;53.850;10.662;2023-03-13T04:02:32;99729.38;;;6.31;100.00
64933;BME280;51446;53.850;10.662;2023-03-13T04:04:57;99719.06;;;6.35;100.00
64933;BME280;51446;53.850;10.662;2023-03-13T04:07:22;99709.47;;;6.33;100.00
64933;BME280;51446;53.850;10.662;2023-03-13T04:09:48;99702.53;;;6.33;100.00
64933;BME280;51446;53.850;10.662;2023-03-13T04:12:14;99694.72;;;6.33;100.00
64933;BME280;51446;53.850;10.662;2023-03-13T04:14:39;99698.91;;;6.25;100.00
64933;BME280;51446;53.850;10.662;2023-03-13T04:17:05;99695.50;;;6.29;100.00
64933;BME280;51446;53.850;10.662;2023-03-13T04:19:30;99682.50;;;6.31;100.00
64933;BME280;51446;53.850;10.662;2023-03-13T04:21:55;99673.88;;;6.33;100.00
64933;BME280;51446;53.850;10.662;2023-03-13T04:24:20;99669.50;;;6.31;100.00
64933;BME280;51446;53.850;10.662;2023-03-13T04:26:46;99652.16;;;6.31;100.00
64933;BME280;51446;53.850;10.662;2023-03-13T04:29:11;99652.22;;;6.36;100.00
64933;BME280;51446;53.850;10.662;2023-03-13T04:31:36;99643.50;;;6.34;100.00
64933;BME280;51446;53.850;10.662;2023-03-13T04:34:01;99641.78;;;6.33;100.00
64933;BME280;51446;53.850;10.662;2023-03-13T04:36:27;99643.56;;;6.37;100.00
64933;BME280;51446;53.850;10.662;2023-03-13T04:38:52;99634.84;;;6.36;100.00
64933;BME280;51446;53.850;10.662;2023-03-13T04:41:17;99624.44;;;6.36;100.00
64933;BME280;51446;53.850;10.662;2023-03-13T04:43:42;99614.00;;;6.35;100.00
64933;BME280;51446;53.850;10.662;2023-03-13T04:46:08;99611.41;;;6.35;100.00
64933;BME280;51446;53.850;10.662;2023-03-13T04:48:33;99607.13;;;6.38;100.00
64933;BME280;51446;53.850;10.662;2023-03-13T04:50:58;99600.13;;;6.34;100.00
64933;BME280;51446;53.850;10.662;2023-03-13T04:53:23;99588.78;;;6.31;100.00
64933;BME280;51446;53.850;10.662;2023-03-13T04:55:49;99583.56;;;6.29;100.00
64933;BME280;51446;53.850;10.662;2023-03-13T04:58:15;99574.91;;;6.32;100.00
64933;BME280;51446;53.850;10.662;2023-03-13T05:00:40;99564.44;;;6.27;100.00
64933;BME280;51446;53.850;10.662;2023-03-13T05:03:05;99567.94;;;6.31;100.00
64933;BME280;51446;53.850;10.662;2023-03-13T05:05:33;99547.13;;;6.32;100.00
64933;BME280;51446;53.850;10.662;2023-03-13T05:07:58;99540.22;;;6.31;100.00
64933;BME280;51446;53.850;10.662;2023-03-13T05:10:23;99530.69;;;6.33;100.00
64933;BME280;51446;53.850;10.662;2023-03-13T05:12:49;99527.22;;;6.33;100.00
64933;BME280;51446;53.850;10.662;2023-03-13T05:15:14;99518.47;;;6.31;100.00
64933;BME280;51446;53.850;10.662;2023-03-13T05:17:39;99514.19;;;6.31;100.00
64933;BME280;51446;53.850;10.662;2023-03-13T05:20:05;99504.59;;;6.29;100.00
64933;BME280;51446;53.850;10.662;2023-03-13T05:22:33;99495.09;;;6.34;100.00
64933;BME280;51446;53.850;10.662;2023-03-13T05:24:59;99495.97;;;6.33;100.00
64933;BME280;51446;53.850;10.662;2023-03-13T05:27:24;99495.16;;;6.37;100.00
64933;BME280;51446;53.850;10.662;2023-03-13T05:29:49;99478.63;;;6.35;100.00
64933;BME280;51446;53.850;10.662;2023-03-13T05:32:14;99475.19;;;6.37;100.00
64933;BME280;51446;53.850;10.662;2023-03-13T05:34:40;99475.22;;;6.42;100.00
64933;BME280;51446;53.850;10.662;2023-03-13T05:37:05;99462.19;;;6.39;100.00
64933;BME280;51446;53.850;10.662;2023-03-13T05:39:30;99459.59;;;6.40;100.00
64933;BME280;51446;53.850;10.662;2023-03-13T05:41:55;99443.97;;;6.42;100.00
64933;BME280;51446;53.850;10.662;2023-03-13T05:44:21;99432.69;;;6.40;100.00
64933;BME280;51446;53.850;10.662;2023-03-13T05:46:46;99422.28;;;6.40;100.00
64933;BME280;51446;53.850;10.662;2023-03-13T05:49:11;99415.34;;;6.43;100.00
64933;BME280;51446;53.850;10.662;2023-03-13T05:51:36;99404.03;;;6.37;100.00
64933;BME280;51446;53.850;10.662;2023-03-13T05:54:02;99405.75;;;6.39;100.00
64933;BME280;51446;53.850;10.662;2023-03-13T05:56:27;99400.53;;;6.38;100.00
64933;BME280;51446;53.850;10.662;2023-03-13T05:58:52;99404.91;;;6.40;100.00
64933;BME280;51446;53.850;10.662;2023-03-13T06:01:17;99397.97;;;6.41;100.00
64933;BME280;51446;53.850;10.662;2023-03-13T06:03:42;99404.06;;;6.41;100.00
64933;BME280;51446;53.850;10.662;2023-03-13T06:06:08;99404.09;;;6.45;100.00
64933;BME280;51446;53.850;10.662;2023-03-13T06:08:33;99403.22;;;6.44;100.00
64933;BME280;51446;53.850;10.662;2023-03-13T06:10:59;99400.63;;;6.44;100.00
64933;BME280;51446;53.850;10.662;2023-03-13T06:13:24;99402.34;;;6.47;100.00
64933;BME280;51446;53.850;10.662;2023-03-13T06:15:54;99385.88;;;6.45;100.00
64933;BME280;51446;53.850;10.662;2023-03-13T06:18:21;99381.53;;;6.47;100.00
64933;BME280;51446;53.850;10.662;2023-03-13T06:20:48;99379.81;;;6.47;100.00
64933;BME280;51446;53.850;10.662;2023-03-13T06:23:13;99365.06;;;6.49;100.00
64933;BME280;51446;53.850;10.662;2023-03-13T06:25:38;99372.84;;;6.45;100.00
64933;BME280;51446;53.850;10.662;2023-03-13T06:28:03;99362.47;;;6.49;100.00
64933;BME280;51446;53.850;10.662;2023-03-13T06:30:29;99362.47;;;6.49;100.00
64933;BME280;51446;53.850;10.662;2023-03-13T06:32:54;99349.47;;;6.52;100.00
64933;BME280;51446;53.850;10.662;2023-03-13T06:35:19;99354.69;;;6.54;100.00
64933;BME280;51446;53.850;10.662;2023-03-13T06:37:44;99338.19;;;6.52;100.00
64933;BME280;51446;53.850;10.662;2023-03-13T06:40:10;99335.59;;;6.52;100.00
64933;BME280;51446;53.850;10.662;2023-03-13T06:42:35;99319.97;;;6.55;100.00
64933;BME280;51446;53.850;10.662;2023-03-13T06:45:01;99326.97;;;6.60;100.00
64933;BME280;51446;53.850;10.662;2023-03-13T06:47:30;99314.81;;;6.61;100.00
64933;BME280;51446;53.850;10.662;2023-03-13T06:49:56;99311.38;;;6.64;100.00
64933;BME280;51446;53.850;10.662;2023-03-13T06:52:21;99310.50;;;6.65;100.00
64933;BME280;51446;53.850;10.662;2023-03-13T06:54:47;99300.97;;;6.68;100.00
64933;BME280;51446;53.850;10.662;2023-03-13T06:57:12;99296.72;;;6.76;100.00
64933;BME280;51446;53.850;10.662;2023-03-13T06:59:37;99275.88;;;6.80;100.00
64933;BME280;51446;53.850;10.662;2023-03-13T07:02:03;99280.25;;;6.82;100.00
64933;BME280;51446;53.850;10.662;2023-03-13T07:04:28;99273.34;;;6.87;100.00
64933;BME280;51446;53.850;10.662;2023-03-13T07:06:53;99274.25;;;6.95;100.00
64933;BME280;51446;53.850;10.662;2023-03-13T07:09:19;99269.91;;;6.94;100.00
64933;BME280;51446;53.850;10.662;2023-03-13T07:11:44;99262.97;;;7.00;100.00
64933;BME280;51446;53.850;10.662;2023-03-13T07:14:09;99259.53;;;7.05;100.00
64933;BME280;51446;53.850;10.662;2023-03-13T07:16:35;99250.03;;;7.10;100.00
64933;BME280;51446;53.850;10.662;2023-03-13T07:19:00;99257.00;;;7.15;100.00
64933;BME280;51446;53.850;10.662;2023-03-13T07:21:25;99241.34;;;7.13;100.00
64933;BME280;51446;53.850;10.662;2023-03-13T07:23:51;99251.78;;;7.16;100.00
64933;BME280;51446;53.850;10.662;2023-03-13T07:26:16;99244.84;;;7.26;100.00
64933;BME280;51446;53.850;10.662;2023-03-13T07:28:42;99237.03;;;7.23;100.00
64933;BME280;51446;53.850;10.662;2023-03-13T07:33:34;99227.50;;;7.31;100.00
64933;BME280;51446;53.850;10.662;2023-03-13T07:36:00;99233.63;;;7.35;100.00
64933;BME280;51446;53.850;10.662;2023-03-13T07:38:25;99224.91;;;7.39;100.00
64933;BME280;51446;53.850;10.662;2023-03-13T07:40:52;99224.06;;;7.46;100.00
64933;BME280;51446;53.850;10.662;2023-03-13T07:43:18;99225.84;;;7.55;100.00
64933;BME280;51446;53.850;10.662;2023-03-13T07:48:24;99210.22;;;7.62;100.00
64933;BME280;51446;53.850;10.662;2023-03-13T07:50:49;99203.31;;;7.71;100.00
64933;BME280;51446;53.850;10.662;2023-03-13T07:53:15;99212.84;;;7.70;100.00
64933;BME280;51446;53.850;10.662;2023-03-13T07:55:53;99196.34;;;7.70;100.00
64933;BME280;51446;53.850;10.662;2023-03-13T07:58:19;99178.94;;;7.72;100.00
64933;BME280;51446;53.850;10.662;2023-03-13T08:00:45;99189.38;;;7.72;100.00
64933;BME280;51446;53.850;10.662;2023-03-13T08:03:10;99187.66;;;7.81;100.00
64933;BME280;51446;53.850;10.662;2023-03-13T08:05:35;99178.94;;;7.76;100.00
64933;BME280;51446;53.850;10.662;2023-03-13T08:08:01;99180.69;;;7.80;100.00
64933;BME280;51446;53.850;10.662;2023-03-13T08:10:26;99172.00;;;7.78;100.00
64933;BME280;51446;53.850;10.662;2023-03-13T08:12:51;99167.63;;;7.84;100.00
64933;BME280;51446;53.850;10.662;2023-03-13T08:15:16;99166.75;;;7.86;100.00
64933;BME280;51446;53.850;10.662;2023-03-13T08:17:45;99180.69;;;7.93;100.00
64933;BME280;51446;53.850;10.662;2023-03-13T08:20:11;99163.28;;;7.93;100.00
64933;BME280;51446;53.850;10.662;2023-03-13T08:22:36;99162.44;;;7.97;100.00
64933;BME280;51446;53.850;10.662;2023-03-13T08:25:02;99157.19;;;8.02;100.00
64933;BME280;51446;53.850;10.662;2023-03-13T08:27:28;99151.13;;;8.05;100.00
64933;BME280;51446;53.850;10.662;2023-03-13T08:29:54;99158.94;;;8.11;100.00
64933;BME280;51446;53.850;10.662;2023-03-13T08:32:19;99160.69;;;8.16;100.00
64933;BME280;51446;53.850;10.662;2023-03-13T08:34:46;99149.34;;;8.22;100.00
64933;BME280;51446;53.850;10.662;2023-03-13T08:37:14;99147.63;;;8.27;100.00
64933;BME280;51446;53.850;10.662;2023-03-13T08:39:39;99131.94;;;8.32;100.00
64933;BME280;51446;53.850;10.662;2023-03-13T08:42:07;99133.69;;;8.38;100.00
64933;BME280;51446;53.850;10.662;2023-03-13T08:44:32;99131.97;;;8.44;100.00
64933;BME280;51446;53.850;10.662;2023-03-13T08:46:57;99127.59;;;8.49;100.00
64933;BME280;51446;53.850;10.662;2023-03-13T08:49:24;99132.81;;;8.57;100.00
64933;BME280;51446;53.850;10.662;2023-03-13T08:51:49;99123.22;;;8.58;100.00
64933;BME280;51446;53.850;10.662;2023-03-13T08:54:14;99127.56;;;8.60;100.00
64933;BME280;51446;53.850;10.662;2023-03-13T08:56:39;99123.19;;;8.67;100.00
64933;BME280;51446;53.850;10.662;2023-03-13T08:59:07;99119.69;;;8.73;100.00
64933;BME280;51446;53.850;10.662;2023-03-13T09:01:34;99112.72;;;8.72;100.00
64933;BME280;51446;53.850;10.662;2023-03-13T09:04:00;99108.34;;;8.84;100.00
64933;BME280;51446;53.850;10.662;2023-03-13T09:06:25;99107.44;;;8.87;100.00
64933;BME280;51446;53.850;10.662;2023-03-13T09:08:50;99113.50;;;8.94;100.00
64933;BME280;51446;53.850;10.662;2023-03-13T09:11:18;99102.16;;;8.98;100.00
64933;BME280;51446;53.850;10.662;2023-03-13T09:13:46;99104.75;;;9.01;100.00
64933;BME280;51446;53.850;10.662;2023-03-13T09:16:17;99098.63;;;9.10;100.00
64933;BME280;51446;53.850;10.662;2023-03-13T09:18:43;99093.31;;;9.22;100.00
64933;BME280;51446;53.850;10.662;2023-03-13T09:21:13;99097.66;;;9.28;100.00
64933;BME280;51446;53.850;10.662;2023-03-13T09:23:38;99081.06;;;9.33;100.00
64933;BME280;51446;53.850;10.662;2023-03-13T09:26:05;99088.75;;;9.57;100.00
64933;BME280;51446;53.850;10.662;2023-03-13T09:28:31;99082.59;;;9.62;100.00
64933;BME280;51446;53.850;10.662;2023-03-13T09:31:08;99078.16;;;9.69;100.00
64933;BME280;51446;53.850;10.662;2023-03-13T09:33:34;99064.97;;;9.81;100.00
64933;BME280;51446;53.850;10.662;2023-03-13T09:36:00;99071.88;;;9.90;100.00
64933;BME280;51446;53.850;10.662;2023-03-13T09:38:25;99077.03;;;9.98;100.00
64933;BME280;51446;53.850;10.662;2023-03-13T09:40:52;99070.84;;;10.06;100.00
64933;BME280;51446;53.850;10.662;2023-03-13T09:43:44;99078.66;;;10.13;100.00
64933;BME280;51446;53.850;10.662;2023-03-13T09:46:15;99059.34;;;10.24;100.00
64933;BME280;51446;53.850;10.662;2023-03-13T09:48:46;99048.75;;;10.32;100.00
64933;BME280;51446;53.850;10.662;2023-03-13T09:51:32;99056.56;;;10.41;100.00
64933;BME280;51446;53.850;10.662;2023-03-13T09:54:25;99064.34;;;10.48;100.00
64933;BME280;51446;53.850;10.662;2023-03-13T09:56:56;99061.56;;;10.60;100.00
64933;BME280;51446;53.850;10.662;2023-03-13T09:59:40;99062.44;;;10.62;100.00
64933;BME280;51446;53.850;10.662;2023-03-13T10:02:20;99057.03;;;10.74;100.00
64933;BME280;51446;53.850;10.662;2023-03-13T10:04:52;99052.50;;;10.86;100.00
64933;BME280;51446;53.850;10.662;2023-03-13T10:07:19;99055.97;;;10.91;100.00
64933;BME280;51446;53.850;10.662;2023-03-13T10:09:45;99062.91;;;10.95;100.00
64933;BME280;51446;53.850;10.662;2023-03-13T10:12:18;99048.88;;;10.99;100.00
64933;BME280;51446;53.850;10.662;2023-03-13T10:17:36;99052.22;;;11.07;100.00
64933;BME280;51446;53.850;10.662;2023-03-13T10:20:22;99052.13;;;11.17;100.00
64933;BME280;51446;53.850;10.662;2023-03-13T10:22:51;99059.84;;;11.24;100.00
64933;BME280;51446;53.850;10.662;2023-03-13T10:25:33;99059.97;;;11.17;100.00
64933;BME280;51446;53.850;10.662;2023-03-13T10:27:59;99069.56;;;11.18;100.00
64933;BME280;51446;53.850;10.662;2023-03-13T10:30:28;99063.44;;;11.19;100.00
64933;BME280;51446;53.850;10.662;2023-03-13T10:33:24;99051.88;;;11.34;100.00
64933;BME280;51446;53.850;10.662;2023-03-13T10:36:10;99064.97;;;11.35;100.00
64933;BME280;51446;53.850;10.662;2023-03-13T10:38:53;99050.16;;;11.31;100.00
64933;BME280;51446;53.850;10.662;2023-03-13T10:41:23;99055.28;;;11.37;100.00
64933;BME280;51446;53.850;10.662;2023-03-13T10:43:51;99065.66;;;11.46;100.00
64933;BME280;51446;53.850;10.662;2023-03-13T10:46:29;99059.31;;;11.61;100.00
64933;BME280;51446;53.850;10.662;2023-03-13T10:48:56;99059.97;;;11.74;100.00
64933;BME280;51446;53.850;10.662;2023-03-13T10:51:32;99064.03;;;11.92;100.00
64933;BME280;51446;53.850;10.662;2023-03-13T10:53:59;99040.75;;;12.22;100.00
64933;BME280;51446;53.850;10.662;2023-03-13T10:56:28;99060.88;;;12.25;100.00
64933;BME280;51446;53.850;10.662;2023-03-13T10:58:54;99050.31;;;12.28;100.00
64933;BME280;51446;53.850;10.662;2023-03-13T11:03:48;99063.81;;;12.53;100.00
64933;BME280;51446;53.850;10.662;2023-03-13T11:06:26;99050.22;;;13.56;100.00
64933;BME280;51446;53.850;10.662;2023-03-13T11:09:19;99045.81;;;13.91;100.00
64933;BME280;51446;53.850;10.662;2023-03-13T11:11:55;99045.44;;;14.39;100.00
64933;BME280;51446;53.850;10.662;2023-03-13T11:14:25;99052.53;;;14.04;100.00
64933;BME280;51446;53.850;10.662;2023-03-13T11:16:53;99053.09;;;13.83;100.00
64933;BME280;51446;53.850;10.662;2023-03-13T11:19:44;99044.94;;;14.25;100.00
64933;BME280;51446;53.850;10.662;2023-03-13T11:27:47;99044.63;;;13.31;100.00
64933;BME280;51446;53.850;10.662;2023-03-13T11:31:08;99055.19;;;13.29;100.00
64933;BME280;51446;53.850;10.662;2023-03-13T11:35:46;99048.19;;;12.91;100.00
64933;BME280;51446;53.850;10.662;2023-03-13T11:38:53;99044.88;;;12.81;100.00
64933;BME280;51446;53.850;10.662;2023-03-13T12:00:23;99004.84;;;14.45;100.00
64933;BME280;51446;53.850;10.662;2023-03-13T12:05:44;98997.19;;;14.36;100.00
64933;BME280;51446;53.850;10.662;2023-03-13T12:08:15;98997.69;;;15.37;100.00
64933;BME280;51446;53.850;10.662;2023-03-13T12:10:47;98987.47;;;16.06;100.00
64933;BME280;51446;53.850;10.662;2023-03-13T12:13:22;98978.13;;;16.45;100.00
64933;BME280;51446;53.850;10.662;2023-03-13T12:15:56;98966.09;;;15.60;100.00
64933;BME280;51446;53.850;10.662;2023-03-13T12:18:30;98990.91;;;15.01;100.00
64933;BME280;51446;53.850;10.662;2023-03-13T12:24:18;98987.69;;;14.60;100.00
64933;BME280;51446;53.850;10.662;2023-03-13T12:26:47;98997.00;;;14.73;100.00
64933;BME280;51446;53.850;10.662;2023-03-13T12:32:13;98985.25;;;14.54;100.00
64933;BME280;51446;53.850;10.662;2023-03-13T12:34:58;98979.72;;;14.32;100.00
64933;BME280;51446;53.850;10.662;2023-03-13T12:37:48;98992.59;;;14.11;100.00
64933;BME280;51446;53.850;10.662;2023-03-13T12:43:10;98981.81;;;14.20;100.00
64933;BME280;51446;53.850;10.662;2023-03-13T12:45:50;98981.00;;;14.17;100.00
64933;BME280;51446;53.850;10.662;2023-03-13T12:51:27;98980.47;;;14.37;100.00
64933;BME280;51446;53.850;10.662;2023-03-13T12:54:14;98988.59;;;14.90;100.00
64933;BME280;51446;53.850;10.662;2023-03-13T12:59:55;98969.84;;;15.82;100.00
64933;BME280;51446;53.850;10.662;2023-03-13T13:02:26;98962.06;;;16.02;100.00
64933;BME280;51446;53.850;10.662;2023-03-13T13:04:53;98940.97;;;16.01;100.00
64933;BME280;51446;53.850;10.662;2023-03-13T13:07:33;98957.47;;;15.82;100.00
64933;BME280;51446;53.850;10.662;2023-03-13T13:12:44;98946.56;;;14.84;100.00
64933;BME280;51446;53.850;10.662;2023-03-13T13:15:25;98949.19;;;14.84;100.00
64933;BME280;51446;53.850;10.662;2023-03-13T13:17:57;98944.13;;;15.05;100.00
64933;BME280;51446;53.850;10.662;2023-03-13T13:20:29;98936.00;;;15.13;100.00
64933;BME280;51446;53.850;10.662;2023-03-13T13:22:56;98935.47;;;15.01;100.00
64933;BME280;51446;53.850;10.662;2023-03-13T13:25:40;98946.09;;;15.26;100.00
64933;BME280;51446;53.850;10.662;2023-03-13T13:30:39;98937.50;;;15.47;100.00
64933;BME280;51446;53.850;10.662;2023-03-13T13:35:43;98945.72;;;15.11;100.00
64933;BME280;51446;53.850;10.662;2023-03-13T13:43:38;98915.28;;;15.52;100.00
64933;BME280;51446;53.850;10.662;2023-03-13T13:48:45;98909.78;;;15.33;100.00
64933;BME280;51446;53.850;10.662;2023-03-13T13:53:44;98910.94;;;15.76;100.00
64933;BME280;51446;53.850;10.662;2023-03-13T14:02:11;98882.63;;;16.05;100.00
64933;BME280;51446;53.850;10.662;2023-03-13T14:04:48;98883.00;;;15.69;100.00
64933;BME280;51446;53.850;10.662;2023-03-13T14:07:29;98880.59;;;15.63;100.00
64933;BME280;51446;53.850;10.662;2023-03-13T14:12:55;98879.22;;;15.51;100.00
64933;BME280;51446;53.850;10.662;2023-03-13T14:15:22;98863.66;;;15.69;100.00
64933;BME280;51446;53.850;10.662;2023-03-13T14:17:52;98852.56;;;15.59;100.00
64933;BME280;51446;53.850;10.662;2023-03-13T14:20:34;98854.66;;;15.49;100.00